createdAt,value
2019-04-03T00:02:12.554Z,98789.73
2019-04-03T00:05:15.474Z,98786.44
2019-04-03T00:08:18.371Z,98781.37
2019-04-03T00:11:21.284Z,98788.92
2019-04-03T00:14:24.207Z,98800.09
2019-04-03T00:17:27.533Z,98793.83
2019-04-03T00:20:30.450Z,98792.24
2019-04-03T00:23:33.421Z,98792.89
2019-04-03T00:26:36.746Z,98793.63
2019-04-03T00:29:39.664Z,98798.90
2019-04-03T00:32:42.941Z,98794.39
2019-04-03T00:35:46.722Z,98799.86
2019-04-03T00:38:50.138Z,98799.55
2019-04-03T00:41:54.637Z,98794.98
2019-04-03T00:44:58.450Z,98783.14
2019-04-03T00:48:01.366Z,98779.48
2019-04-03T00:51:04.288Z,98773.02
2019-04-03T00:54:07.239Z,98771.93
2019-04-03T00:57:10.152Z,98768.17
2019-04-03T01:00:16.072Z,98766.67
2019-04-03T01:03:19.144Z,98771.42
2019-04-03T01:06:23.110Z,98773.24
2019-04-03T01:09:26.134Z,98772.53
2019-04-03T01:12:31.274Z,98774.18
2019-04-03T01:15:34.432Z,98771.70
2019-04-03T01:18:37.856Z,98769.05
2019-04-03T01:21:40.778Z,98754.94
2019-04-03T01:24:43.768Z,98758.17
2019-04-03T01:27:47.738Z,98758.66
2019-04-03T01:30:51.084Z,98756.67
2019-04-03T01:33:54.371Z,98763.75
2019-04-03T01:36:57.835Z,98761.91
2019-04-03T01:40:02.935Z,98760.21
2019-04-03T01:43:06.263Z,98771.30
2019-04-03T01:46:09.463Z,98772.34
2019-04-03T01:49:12.381Z,98765.63
2019-04-03T01:52:15.271Z,98768.50
2019-04-03T01:55:18.307Z,98770.89
2019-04-03T01:58:21.512Z,98773.94
2019-04-03T02:01:24.528Z,98767.08
2019-04-03T02:04:28.107Z,98774.44
2019-04-03T02:07:32.115Z,98779.55
2019-04-03T02:10:35.442Z,98777.78
2019-04-03T02:13:38.337Z,98773.11
2019-04-03T02:16:41.634Z,98781.58
2019-04-03T02:19:44.674Z,98781.02
2019-04-03T02:22:48.478Z,98779.55
2019-04-03T02:25:51.439Z,98774.46
2019-04-03T02:28:54.347Z,98771.64
2019-04-03T02:31:58.367Z,98768.56
2019-04-03T02:35:06.811Z,98772.27
2019-04-03T02:38:08.117Z,98775.36
2019-04-03T02:41:11.196Z,98770.78
2019-04-03T02:44:17.939Z,98764.00
2019-04-03T02:47:19.984Z,98765.92
2019-04-03T02:50:24.320Z,98759.34
2019-04-03T02:53:29.877Z,98757.16
2019-04-03T02:56:32.773Z,98755.70
2019-04-03T02:59:35.663Z,98753.88
2019-04-03T03:02:38.743Z,98752.34
2019-04-03T03:05:41.881Z,98750.78
2019-04-03T03:08:45.402Z,98745.89
2019-04-03T03:11:48.877Z,98750.90
2019-04-03T03:14:52.106Z,98749.16
2019-04-03T03:17:56.370Z,98745.77
2019-04-03T03:21:02.604Z,98756.32
2019-04-03T03:24:05.955Z,98762.66
2019-04-03T03:27:10.282Z,98751.93
2019-04-03T03:30:34.737Z,98742.87
2019-04-03T03:33:32.778Z,98734.53
2019-04-03T03:36:26.820Z,98731.56
2019-04-03T03:39:32.884Z,98741.75
2019-04-03T03:42:36.368Z,98747.84
2019-04-03T03:45:40.533Z,98751.53
2019-04-03T03:48:45.542Z,98753.63
2019-04-03T03:51:49.417Z,98743.48
2019-04-03T03:54:53.794Z,98741.63
2019-04-03T03:57:58.637Z,98734.86
2019-04-03T04:01:02.513Z,98744.45
2019-04-03T04:04:05.797Z,98743.35
2019-04-03T04:07:09.027Z,98741.41
2019-04-03T04:10:12.103Z,98740.63
2019-04-03T04:13:16.402Z,98751.37
2019-04-03T04:16:21.184Z,98739.97
2019-04-03T04:19:28.730Z,98731.16
2019-04-03T04:22:29.524Z,98734.56
2019-04-03T04:25:34.502Z,98728.88
2019-04-03T04:28:40.231Z,98727.09
2019-04-03T04:31:44.086Z,98722.35
2019-04-03T04:34:49.891Z,98721.52
2019-04-03T04:37:55.413Z,98721.89
2019-04-03T04:41:01.363Z,98706.17
2019-04-03T04:44:03.736Z,98708.82
2019-04-03T04:47:06.761Z,98703.09
2019-04-03T04:50:10.388Z,98713.00
2019-04-03T04:53:13.720Z,98718.57
2019-04-03T04:56:17.320Z,98723.30
2019-04-03T04:59:20.251Z,98725.55
2019-04-03T05:02:23.179Z,98727.14
2019-04-03T05:05:27.185Z,98727.45
2019-04-03T05:08:32.576Z,98736.05
2019-04-03T05:11:38.270Z,98729.92
2019-04-03T05:14:41.288Z,98729.27
2019-04-03T05:17:45.300Z,98729.34
2019-04-03T05:20:50.540Z,98729.45
2019-04-03T05:23:55.480Z,98729.14
2019-04-03T05:26:58.608Z,98724.66
2019-04-03T05:30:01.583Z,98731.92
2019-04-03T05:33:04.579Z,98739.30
2019-04-03T05:36:07.488Z,98725.77
2019-04-03T05:39:10.756Z,98733.89
2019-04-03T05:42:13.664Z,98729.79
2019-04-03T05:45:17.587Z,98733.05
2019-04-03T05:48:21.472Z,98728.41
2019-04-03T05:51:24.495Z,98733.80
2019-04-03T05:54:27.411Z,98729.66
2019-04-03T05:57:30.376Z,98732.77
2019-04-03T06:00:34.028Z,98739.66
2019-04-03T06:03:40.706Z,98739.08
2019-04-03T06:06:42.163Z,98726.98
2019-04-03T06:09:45.323Z,98715.66
2019-04-03T06:12:48.309Z,98723.33
2019-04-03T06:15:53.224Z,98730.07
2019-04-03T06:18:58.217Z,98723.52
2019-04-03T06:22:01.365Z,98727.55
2019-04-03T06:25:05.101Z,98731.92
2019-04-03T06:28:08.105Z,98720.22
2019-04-03T06:31:11.086Z,98716.45
2019-04-03T06:34:14.056Z,98716.97
2019-04-03T06:37:16.954Z,98722.00
2019-04-03T06:40:19.889Z,98711.69
2019-04-03T06:43:23.236Z,98714.27
2019-04-03T06:46:28.457Z,98725.05
2019-04-03T06:49:31.233Z,98723.32
2019-04-03T06:52:34.202Z,98731.14
2019-04-03T06:55:37.420Z,98745.48
2019-04-03T06:58:43.603Z,98738.94
2019-04-03T07:01:46.511Z,98746.01
2019-04-03T07:04:49.435Z,98743.87
2019-04-03T07:07:53.036Z,98746.47
2019-04-03T07:10:57.114Z,98749.56
2019-04-03T07:14:00.338Z,98752.62
2019-04-03T07:17:05.436Z,98761.88
2019-04-03T07:20:14.527Z,98760.86
2019-04-03T07:23:13.756Z,98767.88
2019-04-03T07:26:16.795Z,98768.53
2019-04-03T07:29:20.027Z,98773.91
2019-04-03T07:32:24.902Z,98771.84
2019-04-03T07:35:28.365Z,98765.38
2019-04-03T07:38:31.632Z,98773.91
2019-04-03T07:41:34.541Z,98770.12
2019-04-03T07:44:37.485Z,98771.33
2019-04-03T07:47:41.252Z,98775.30
2019-04-03T07:50:44.207Z,98772.23
2019-04-03T07:53:48.856Z,98773.77
2019-04-03T07:56:52.659Z,98775.34
2019-04-03T07:59:55.581Z,98772.96
2019-04-03T08:02:59.239Z,98772.59
2019-04-03T08:06:03.291Z,98773.91
2019-04-03T08:09:09.915Z,98777.53
2019-04-03T08:12:13.551Z,98775.55
2019-04-03T08:15:16.468Z,98775.09
2019-04-03T08:18:21.529Z,98777.28
2019-04-03T08:21:24.558Z,98781.30
2019-04-03T08:24:27.965Z,98780.06
2019-04-03T08:27:31.085Z,98780.58
2019-04-03T08:30:34.630Z,98780.03
2019-04-03T08:33:37.581Z,98783.68
2019-04-03T08:36:40.591Z,98777.27
2019-04-03T08:39:43.522Z,98788.84
2019-04-03T08:42:46.420Z,98777.84
2019-04-03T08:45:49.833Z,98774.30
2019-04-03T08:48:55.127Z,98777.84
2019-04-03T08:51:58.237Z,98770.66
2019-04-03T08:55:01.706Z,98771.47
2019-04-03T08:58:04.903Z,98772.53
2019-04-03T09:01:10.449Z,98777.94
2019-04-03T09:04:14.848Z,98775.15
2019-04-03T09:07:18.499Z,98775.44
2019-04-03T09:10:21.894Z,98774.87
2019-04-03T09:13:25.092Z,98768.27
2019-04-03T09:16:30.238Z,98764.55
2019-04-03T09:19:32.811Z,98766.66
2019-04-03T09:22:36.570Z,98768.22
2019-04-03T09:25:39.500Z,98766.56
2019-04-03T09:28:42.818Z,98765.58
2019-04-03T09:31:46.309Z,98749.50
2019-04-03T09:34:49.395Z,98744.73
2019-04-03T09:37:52.348Z,98739.11
2019-04-03T09:40:55.583Z,98720.36
2019-04-03T09:43:58.899Z,98714.30
2019-04-03T09:47:03.447Z,98722.36
2019-04-03T09:50:08.601Z,98748.63
2019-04-03T09:53:11.633Z,98759.41
2019-04-03T09:56:14.534Z,98757.45
2019-04-03T09:59:17.455Z,98761.67
2019-04-03T10:02:20.875Z,98761.73
2019-04-03T10:05:24.172Z,98763.08
2019-04-03T10:08:28.181Z,98762.67
2019-04-03T10:11:31.301Z,98754.21
2019-04-03T10:14:34.867Z,98750.05
2019-04-03T10:17:38.571Z,98738.99
2019-04-03T10:20:43.403Z,98738.81
2019-04-03T10:23:46.647Z,98739.66
2019-04-03T10:26:50.375Z,98736.58
2019-04-03T10:29:55.795Z,98737.91
2019-04-03T10:32:59.595Z,98740.36
2019-04-03T10:36:03.457Z,98739.21
2019-04-03T10:39:09.304Z,98732.59
2019-04-03T10:42:12.493Z,98731.28
2019-04-03T10:45:17.202Z,98728.37
2019-04-03T10:48:20.935Z,98723.92
2019-04-03T10:51:24.087Z,98708.54
2019-04-03T10:54:27.454Z,98707.25
2019-04-03T10:57:31.737Z,98700.45
2019-04-03T11:00:35.942Z,98697.50
2019-04-03T11:03:39.528Z,98697.04
2019-04-03T11:06:43.298Z,98706.05
2019-04-03T11:09:46.615Z,98703.73
2019-04-03T11:12:50.993Z,98700.41
2019-04-03T11:15:54.668Z,98698.31
2019-04-03T11:19:02.624Z,98703.37
2019-04-03T11:22:02.951Z,98693.53
2019-04-03T11:25:06.571Z,98690.78
2019-04-03T11:28:09.518Z,98682.45
2019-04-03T11:31:24.899Z,98666.34
2019-04-03T11:34:19.367Z,98655.55
2019-04-03T11:37:22.365Z,98644.91
2019-04-03T11:40:25.667Z,98635.38
2019-04-03T11:43:31.016Z,98633.09
2019-04-03T11:46:34.231Z,98635.95
2019-04-03T11:49:37.993Z,98642.26
2019-04-03T11:52:41.356Z,98647.95
2019-04-03T11:55:44.730Z,98647.05
2019-04-03T11:58:51.328Z,98654.92
2019-04-03T12:01:53.516Z,98662.45
2019-04-03T12:04:56.788Z,98653.42
2019-04-03T12:08:00.715Z,98644.34
2019-04-03T12:11:06.109Z,98637.16
2019-04-03T12:14:09.617Z,98632.13
2019-04-03T12:17:12.644Z,98636.73
2019-04-03T12:20:16.669Z,98624.03
2019-04-03T12:23:20.444Z,98620.78
2019-04-03T12:26:23.723Z,98625.14
2019-04-03T12:29:26.725Z,98624.66
2019-04-03T12:32:37.016Z,98620.38
2019-04-03T12:35:35.250Z,98613.59
2019-04-03T12:38:38.855Z,98620.45
2019-04-03T12:41:43.212Z,98616.28
2019-04-03T12:44:46.882Z,98616.41
2019-04-03T12:47:49.903Z,98621.36
2019-04-03T12:50:53.492Z,98623.09
2019-04-03T12:53:56.391Z,98626.95
2019-04-03T12:57:01.538Z,98625.56
2019-04-03T13:00:06.635Z,98642.77
2019-04-03T13:03:10.320Z,98637.81
2019-04-03T13:06:13.436Z,98628.59
2019-04-03T13:09:17.445Z,98617.53
2019-04-03T13:12:23.054Z,98612.48
2019-04-03T13:15:25.931Z,98614.70
2019-04-03T13:18:28.899Z,98607.99
2019-04-03T13:21:31.893Z,98595.56
2019-04-03T13:24:35.849Z,98590.35
2019-04-03T13:27:39.682Z,98585.07
2019-04-03T13:30:43.475Z,98574.70
2019-04-03T13:33:47.821Z,98563.70
2019-04-03T13:36:51.809Z,98550.55
2019-04-03T13:40:00.541Z,98549.07
2019-04-03T13:43:03.706Z,98550.22
2019-04-03T13:46:07.557Z,98550.97
2019-04-03T13:49:11.528Z,98556.75
2019-04-03T13:52:15.363Z,98548.33
2019-04-03T13:55:18.828Z,98546.31
2019-04-03T13:58:23.317Z,98540.27
2019-04-03T14:01:27.904Z,98557.48
2019-04-03T14:04:31.788Z,98549.50
2019-04-03T14:07:35.470Z,98544.28
2019-04-03T14:10:38.787Z,98543.50
2019-04-03T14:13:43.572Z,98553.53
2019-04-03T14:16:49.351Z,98549.66
2019-04-03T14:19:52.842Z,98563.51
2019-04-03T14:22:55.963Z,98554.41
2019-04-03T14:26:06.172Z,98551.15
2019-04-03T14:29:06.515Z,98542.80
2019-04-03T14:32:09.454Z,98548.97
2019-04-03T14:35:41.349Z,98549.44
2019-04-03T14:38:18.044Z,98541.00
2019-04-03T14:41:21.331Z,98542.88
2019-04-03T14:44:24.267Z,98545.39
2019-04-03T14:47:28.411Z,98543.36
2019-04-03T14:50:32.248Z,98537.65
2019-04-03T14:53:35.534Z,98531.66
2019-04-03T14:56:39.554Z,98537.44
2019-04-03T14:59:43.168Z,98545.40
2019-04-03T15:02:46.501Z,98545.45
2019-04-03T15:05:50.316Z,98557.88
2019-04-03T15:08:54.702Z,98558.10
2019-04-03T15:11:58.717Z,98558.89
2019-04-03T15:15:01.637Z,98541.16
2019-04-03T15:18:04.749Z,98531.42
2019-04-03T15:21:07.796Z,98526.44
2019-04-03T15:24:11.789Z,98529.39
2019-04-03T15:27:15.755Z,98523.63
2019-04-03T15:30:20.612Z,98520.73
2019-04-03T15:33:24.869Z,98541.54
2019-04-03T15:36:28.230Z,98536.02
2019-04-03T15:39:31.564Z,98533.61
2019-04-03T15:42:34.746Z,98542.34
2019-04-03T15:45:38.040Z,98548.40
2019-04-03T15:48:41.445Z,98557.59
2019-04-03T15:51:44.369Z,98562.20
2019-04-03T15:54:47.745Z,98567.89
2019-04-03T15:57:52.591Z,98559.32
2019-04-03T16:00:55.566Z,98559.30
2019-04-03T16:03:59.962Z,98552.21
2019-04-03T16:07:03.217Z,98556.82
2019-04-03T16:10:08.368Z,98552.52
2019-04-03T16:13:13.550Z,98547.23
2019-04-03T16:16:16.230Z,98544.64
2019-04-03T16:19:19.153Z,98532.75
2019-04-03T16:22:22.541Z,98529.25
2019-04-03T16:25:25.668Z,98531.98
2019-04-03T16:28:28.726Z,98524.42
2019-04-03T16:31:31.724Z,98526.69
2019-04-03T16:34:34.782Z,98526.51
2019-04-03T16:37:38.318Z,98524.32
2019-04-03T16:40:41.424Z,98513.90
2019-04-03T16:43:44.750Z,98514.98
2019-04-03T16:46:47.964Z,98513.03
2019-04-03T16:49:54.586Z,98509.23
2019-04-03T16:52:56.810Z,98517.02
2019-04-03T16:56:00.053Z,98520.67
2019-04-03T16:59:03.108Z,98516.30
2019-04-03T17:02:06.313Z,98514.75
2019-04-03T17:05:12.093Z,98506.67
2019-04-03T17:08:15.939Z,98495.28
2019-04-03T17:11:19.138Z,98486.95
2019-04-03T17:14:24.472Z,98492.48
2019-04-03T17:17:27.346Z,98491.79
2019-04-03T17:20:30.293Z,98497.25
2019-04-03T17:23:34.848Z,98506.26
2019-04-03T17:26:48.347Z,98505.07
2019-04-03T17:29:45.696Z,98503.61
2019-04-03T17:32:48.789Z,98506.56
2019-04-03T17:35:52.155Z,98507.58
2019-04-03T17:38:55.139Z,98507.66
2019-04-03T17:41:58.028Z,98520.89
2019-04-03T17:45:00.985Z,98535.34
2019-04-03T17:48:04.286Z,98542.48
2019-04-03T17:51:07.208Z,98535.64
2019-04-03T17:54:10.779Z,98527.08
2019-04-03T17:57:14.167Z,98524.83
2019-04-03T18:00:21.031Z,98537.47
2019-04-03T18:03:24.246Z,98541.09
2019-04-03T18:06:27.879Z,98554.73
2019-04-03T18:09:31.294Z,98559.09
2019-04-03T18:12:34.734Z,98576.03
2019-04-03T18:15:37.684Z,98580.95
2019-04-03T18:18:40.950Z,98577.97
2019-04-03T18:21:43.894Z,98573.97
2019-04-03T18:24:47.176Z,98570.00
2019-04-03T18:27:50.100Z,98545.80
2019-04-03T18:30:53.014Z,98550.48
2019-04-03T18:33:56.391Z,98543.14
2019-04-03T18:36:59.658Z,98520.63
2019-04-03T18:40:04.747Z,98535.92
2019-04-03T18:43:08.015Z,98544.48
2019-04-03T18:46:11.315Z,98554.58
2019-04-03T18:49:14.504Z,98554.91
2019-04-03T18:52:18.119Z,98560.41
2019-04-03T18:55:21.069Z,98569.28
2019-04-03T18:58:24.404Z,98571.70
2019-04-03T19:01:27.439Z,98569.01
2019-04-03T19:04:30.359Z,98593.12
2019-04-03T19:07:33.372Z,98585.26
2019-04-03T19:10:36.271Z,98584.52
2019-04-03T19:13:39.211Z,98602.97
2019-04-03T19:16:46.311Z,98619.88
2019-04-03T19:19:48.549Z,98622.45
2019-04-03T19:23:01.969Z,98603.69
2019-04-03T19:25:58.125Z,98604.97
2019-04-03T19:29:04.861Z,98621.48
2019-04-03T19:32:07.001Z,98607.27
2019-04-03T19:35:10.278Z,98599.72
2019-04-03T19:38:13.758Z,98601.66
2019-04-03T19:41:17.044Z,98602.72
2019-04-03T19:44:20.375Z,98597.36
2019-04-03T19:47:24.601Z,98587.28
2019-04-03T19:50:31.462Z,98601.46
2019-04-03T19:53:35.805Z,98603.30
2019-04-03T19:56:39.602Z,98605.35
2019-04-03T19:59:42.943Z,98605.75
2019-04-03T20:02:46.187Z,98608.33
2019-04-03T20:05:50.821Z,98605.63
2019-04-03T20:08:55.113Z,98598.54
2019-04-03T20:11:58.035Z,98590.03
2019-04-03T20:15:02.403Z,98600.39
2019-04-03T20:18:06.798Z,98595.03
2019-04-03T20:21:09.822Z,98598.87
2019-04-03T20:24:13.393Z,98612.56
2019-04-03T20:27:17.203Z,98585.91
2019-04-03T20:30:20.477Z,98597.09
2019-04-03T20:33:23.388Z,98591.09
2019-04-03T20:36:26.312Z,98592.02
2019-04-03T20:39:29.635Z,98571.02
2019-04-03T20:42:32.670Z,98555.63
2019-04-03T20:45:35.589Z,98561.23
2019-04-03T20:48:38.631Z,98578.55
2019-04-03T20:51:41.919Z,98565.40
2019-04-03T20:54:45.166Z,98556.04
2019-04-03T20:57:55.403Z,98550.66
2019-04-03T21:01:05.694Z,98543.02
2019-04-03T21:03:57.705Z,98537.02
2019-04-03T21:07:01.368Z,98525.16
2019-04-03T21:10:05.114Z,98533.38
2019-04-03T21:13:08.742Z,98551.86
2019-04-03T21:16:12.936Z,98543.07
2019-04-03T21:19:16.251Z,98539.13
2019-04-03T21:22:19.460Z,98536.55
2019-04-03T21:25:22.375Z,98523.00
2019-04-03T21:28:25.269Z,98520.71
2019-04-03T21:31:28.182Z,98517.28
2019-04-03T21:34:32.804Z,98514.70
2019-04-03T21:37:39.774Z,98516.48
2019-04-03T21:40:41.127Z,98511.79
2019-04-03T21:43:44.024Z,98517.74
2019-04-03T21:46:47.259Z,98523.42
2019-04-03T21:49:50.583Z,98526.92
2019-04-03T21:52:54.388Z,98519.47
2019-04-03T21:55:57.339Z,98511.91
2019-04-03T21:59:00.652Z,98513.11
2019-04-03T22:02:04.037Z,98511.40
2019-04-03T22:05:07.948Z,98517.94
2019-04-03T22:08:10.874Z,98508.76
2019-04-03T22:11:14.161Z,98527.23
2019-04-03T22:14:18.427Z,98533.78
2019-04-03T22:17:22.029Z,98530.19
2019-04-03T22:20:25.578Z,98527.84
2019-04-03T22:23:28.866Z,98534.09
2019-04-03T22:26:32.754Z,98546.23
2019-04-03T22:29:35.675Z,98549.22
2019-04-03T22:32:38.578Z,98575.56
2019-04-03T22:35:42.151Z,98552.83
2019-04-03T22:38:45.098Z,98534.50
2019-04-03T22:41:48.429Z,98548.16
2019-04-03T22:44:51.668Z,98559.58
2019-04-03T22:47:56.290Z,98567.45
2019-04-03T22:51:00.059Z,98549.27
2019-04-03T22:54:03.645Z,98545.00
2019-04-03T22:57:06.564Z,98539.57
2019-04-03T23:00:10.455Z,98543.98
2019-04-03T23:03:14.767Z,98550.94
2019-04-03T23:06:18.820Z,98564.19
2019-04-03T23:09:24.669Z,98560.75
2019-04-03T23:12:27.266Z,98544.84
2019-04-03T23:15:30.274Z,98547.94
2019-04-03T23:18:33.231Z,98543.39
2019-04-03T23:21:36.234Z,98548.14
2019-04-03T23:24:39.228Z,98545.95
2019-04-03T23:27:42.474Z,98524.05
2019-04-03T23:30:45.760Z,98502.00
2019-04-03T23:33:48.716Z,98498.36
2019-04-03T23:36:52.426Z,98500.17
2019-04-03T23:39:56.886Z,98497.58
2019-04-03T23:42:59.836Z,98490.08
2019-04-03T23:46:02.772Z,98496.12
2019-04-03T23:49:07.204Z,98481.25
2019-04-03T23:52:10.159Z,98477.30
2019-04-03T23:55:13.122Z,98465.27
2019-04-03T23:58:16.078Z,98463.49
